sensor_id;sensor_type;location;lat;lon;timestamp;P1;durP1;ratioP1;P2;durP2;ratioP2
7340;SDS011;6870;50.944;6.932;2022-08-06T00:02:27;1.20;;;0.87;;
7340;SDS011;6870;50.944;6.932;2022-08-06T00:05:01;2.03;;;1.13;;
7340;SDS011;6870;50.944;6.932;2022-08-06T00:07:32;1.30;;;1.00;;
7340;SDS011;6870;50.944;6.932;2022-08-06T00:10:13;1.13;;;0.80;;
7340;SDS011;6870;50.944;6.932;2022-08-06T00:12:45;1.00;;;0.90;;
7340;SDS011;6870;50.944;6.932;2022-08-06T00:15:15;1.43;;;1.23;;
7340;SDS011;6870;50.944;6.932;2022-08-06T00:18:06;1.77;;;1.23;;
7340;SDS011;6870;50.944;6.932;2022-08-06T00:20:38;1.97;;;1.37;;
7340;SDS011;6870;50.944;6.932;2022-08-06T00:23:08;1.30;;;1.10;;
7340;SDS011;6870;50.944;6.932;2022-08-06T00:25:42;2.03;;;1.20;;
7340;SDS011;6870;50.944;6.932;2022-08-06T00:28:19;1.40;;;1.00;;
7340;SDS011;6870;50.944;6.932;2022-08-06T00:30:57;1.30;;;1.20;;
7340;SDS011;6870;50.944;6.932;2022-08-06T00:33:38;1.00;;;0.87;;
7340;SDS011;6870;50.944;6.932;2022-08-06T00:36:21;1.63;;;1.30;;
7340;SDS011;6870;50.944;6.932;2022-08-06T00:38:55;2.30;;;1.07;;
7340;SDS011;6870;50.944;6.932;2022-08-06T00:41:25;1.17;;;0.90;;
7340;SDS011;6870;50.944;6.932;2022-08-06T00:44:07;3.27;;;1.30;;
7340;SDS011;6870;50.944;6.932;2022-08-06T00:46:38;1.63;;;1.07;;
7340;SDS011;6870;50.944;6.932;2022-08-06T00:49:07;1.10;;;0.90;;
7340;SDS011;6870;50.944;6.932;2022-08-06T00:51:37;1.80;;;1.03;;
7340;SDS011;6870;50.944;6.932;2022-08-06T00:54:17;1.37;;;0.93;;
7340;SDS011;6870;50.944;6.932;2022-08-06T00:57:01;1.30;;;1.10;;
7340;SDS011;6870;50.944;6.932;2022-08-06T00:59:37;1.30;;;1.20;;
7340;SDS011;6870;50.944;6.932;2022-08-06T01:02:08;2.30;;;1.30;;
7340;SDS011;6870;50.944;6.932;2022-08-06T01:04:41;2.70;;;1.13;;
7340;SDS011;6870;50.944;6.932;2022-08-06T01:07:11;1.30;;;1.00;;
7340;SDS011;6870;50.944;6.932;2022-08-06T01:09:41;1.30;;;1.00;;
7340;SDS011;6870;50.944;6.932;2022-08-06T01:12:23;2.03;;;1.10;;
7340;SDS011;6870;50.944;6.932;2022-08-06T01:15:01;2.23;;;1.33;;
7340;SDS011;6870;50.944;6.932;2022-08-06T01:17:42;1.33;;;1.20;;
7340;SDS011;6870;50.944;6.932;2022-08-06T01:20:34;1.33;;;1.17;;
7340;SDS011;6870;50.944;6.932;2022-08-06T01:23:38;1.60;;;0.93;;
7340;SDS011;6870;50.944;6.932;2022-08-06T01:26:26;1.80;;;1.20;;
7340;SDS011;6870;50.944;6.932;2022-08-06T01:29:06;2.40;;;1.20;;
7340;SDS011;6870;50.944;6.932;2022-08-06T01:31:43;1.30;;;1.10;;
7340;SDS011;6870;50.944;6.932;2022-08-06T01:34:18;1.33;;;0.93;;
7340;SDS011;6870;50.944;6.932;2022-08-06T01:37:08;1.57;;;1.23;;
7340;SDS011;6870;50.944;6.932;2022-08-06T01:39:44;1.13;;;0.90;;
7340;SDS011;6870;50.944;6.932;2022-08-06T01:42:28;1.30;;;1.07;;
7340;SDS011;6870;50.944;6.932;2022-08-06T01:45:03;2.23;;;1.20;;
7340;SDS011;6870;50.944;6.932;2022-08-06T01:47:38;2.03;;;1.00;;
7340;SDS011;6870;50.944;6.932;2022-08-06T01:50:21;1.13;;;0.87;;
7340;SDS011;6870;50.944;6.932;2022-08-06T01:52:55;1.83;;;1.23;;
7340;SDS011;6870;50.944;6.932;2022-08-06T01:55:27;2.53;;;1.50;;
7340;SDS011;6870;50.944;6.932;2022-08-06T01:58:21;1.20;;;1.07;;
7340;SDS011;6870;50.944;6.932;2022-08-06T02:00:57;1.20;;;0.70;;
7340;SDS011;6870;50.944;6.932;2022-08-06T02:03:30;1.53;;;1.20;;
7340;SDS011;6870;50.944;6.932;2022-08-06T02:06:19;1.60;;;1.23;;
7340;SDS011;6870;50.944;6.932;2022-08-06T02:08:55;1.47;;;1.00;;
7340;SDS011;6870;50.944;6.932;2022-08-06T02:11:47;1.50;;;0.97;;
7340;SDS011;6870;50.944;6.932;2022-08-06T02:14:30;1.30;;;0.73;;
7340;SDS011;6870;50.944;6.932;2022-08-06T02:17:03;1.50;;;1.00;;
7340;SDS011;6870;50.944;6.932;2022-08-06T02:19:40;1.37;;;1.10;;
7340;SDS011;6870;50.944;6.932;2022-08-06T02:22:34;1.30;;;1.00;;
7340;SDS011;6870;50.944;6.932;2022-08-06T02:25:09;1.23;;;0.90;;
7340;SDS011;6870;50.944;6.932;2022-08-06T02:27:52;1.00;;;0.90;;
7340;SDS011;6870;50.944;6.932;2022-08-06T02:30:25;1.13;;;1.03;;
7340;SDS011;6870;50.944;6.932;2022-08-06T02:33:04;1.10;;;0.90;;
7340;SDS011;6870;50.944;6.932;2022-08-06T02:35:38;0.93;;;0.80;;
7340;SDS011;6870;50.944;6.932;2022-08-06T02:38:17;1.53;;;0.90;;
7340;SDS011;6870;50.944;6.932;2022-08-06T02:40:55;2.10;;;1.03;;
7340;SDS011;6870;50.944;6.932;2022-08-06T02:43:30;1.10;;;1.00;;
7340;SDS011;6870;50.944;6.932;2022-08-06T02:46:03;1.20;;;0.83;;
7340;SDS011;6870;50.944;6.932;2022-08-06T02:48:42;1.77;;;1.00;;
7340;SDS011;6870;50.944;6.932;2022-08-06T02:51:17;1.30;;;1.00;;
7340;SDS011;6870;50.944;6.932;2022-08-06T02:54:12;1.73;;;0.77;;
7340;SDS011;6870;50.944;6.932;2022-08-06T02:56:50;3.10;;;1.10;;
7340;SDS011;6870;50.944;6.932;2022-08-06T02:59:23;1.47;;;1.00;;
7340;SDS011;6870;50.944;6.932;2022-08-06T03:02:04;1.37;;;1.27;;
7340;SDS011;6870;50.944;6.932;2022-08-06T03:04:47;1.33;;;0.90;;
7340;SDS011;6870;50.944;6.932;2022-08-06T03:07:22;3.20;;;1.00;;
7340;SDS011;6870;50.944;6.932;2022-08-06T03:09:57;1.43;;;0.77;;
7340;SDS011;6870;50.944;6.932;2022-08-06T03:12:28;1.00;;;0.83;;
7340;SDS011;6870;50.944;6.932;2022-08-06T03:14:58;1.00;;;0.90;;
7340;SDS011;6870;50.944;6.932;2022-08-06T03:17:38;1.40;;;0.90;;
7340;SDS011;6870;50.944;6.932;2022-08-06T03:20:13;1.53;;;0.90;;
7340;SDS011;6870;50.944;6.932;2022-08-06T03:22:51;0.83;;;0.70;;
7340;SDS011;6870;50.944;6.932;2022-08-06T03:25:27;2.03;;;0.90;;
7340;SDS011;6870;50.944;6.932;2022-08-06T03:27:57;1.17;;;0.83;;
7340;SDS011;6870;50.944;6.932;2022-08-06T03:30:28;1.93;;;1.10;;
7340;SDS011;6870;50.944;6.932;2022-08-06T03:33:00;1.63;;;0.90;;
7340;SDS011;6870;50.944;6.932;2022-08-06T03:35:54;1.00;;;0.90;;
7340;SDS011;6870;50.944;6.932;2022-08-06T03:38:26;1.80;;;0.97;;
7340;SDS011;6870;50.944;6.932;2022-08-06T03:41:05;1.60;;;1.33;;
7340;SDS011;6870;50.944;6.932;2022-08-06T03:43:35;1.77;;;1.00;;
7340;SDS011;6870;50.944;6.932;2022-08-06T03:46:24;1.93;;;1.30;;
7340;SDS011;6870;50.944;6.932;2022-08-06T03:48:56;1.10;;;0.90;;
7340;SDS011;6870;50.944;6.932;2022-08-06T03:51:28;1.07;;;0.80;;
7340;SDS011;6870;50.944;6.932;2022-08-06T03:54:21;1.50;;;1.00;;
7340;SDS011;6870;50.944;6.932;2022-08-06T03:56:59;1.57;;;1.10;;
7340;SDS011;6870;50.944;6.932;2022-08-06T03:59:36;1.23;;;0.80;;
7340;SDS011;6870;50.944;6.932;2022-08-06T04:02:26;1.43;;;1.03;;
7340;SDS011;6870;50.944;6.932;2022-08-06T04:05:12;1.40;;;0.97;;
7340;SDS011;6870;50.944;6.932;2022-08-06T04:07:50;1.20;;;0.80;;
7340;SDS011;6870;50.944;6.932;2022-08-06T04:10:26;1.30;;;1.07;;
7340;SDS011;6870;50.944;6.932;2022-08-06T04:13:00;1.13;;;0.83;;
7340;SDS011;6870;50.944;6.932;2022-08-06T04:15:52;1.50;;;0.80;;
7340;SDS011;6870;50.944;6.932;2022-08-06T04:18:23;1.23;;;0.90;;
7340;SDS011;6870;50.944;6.932;2022-08-06T04:20:55;1.20;;;1.03;;
7340;SDS011;6870;50.944;6.932;2022-08-06T04:23:47;1.63;;;1.13;;
7340;SDS011;6870;50.944;6.932;2022-08-06T04:26:21;2.63;;;1.20;;
7340;SDS011;6870;50.944;6.932;2022-08-06T04:28:55;0.97;;;0.77;;
7340;SDS011;6870;50.944;6.932;2022-08-06T04:31:25;1.50;;;0.80;;
7340;SDS011;6870;50.944;6.932;2022-08-06T04:34:17;1.57;;;1.00;;
7340;SDS011;6870;50.944;6.932;2022-08-06T04:36:54;2.10;;;1.07;;
7340;SDS011;6870;50.944;6.932;2022-08-06T04:39:24;1.40;;;0.90;;
7340;SDS011;6870;50.944;6.932;2022-08-06T04:42:13;1.30;;;0.70;;
7340;SDS011;6870;50.944;6.932;2022-08-06T04:44:43;1.57;;;1.03;;
7340;SDS011;6870;50.944;6.932;2022-08-06T04:47:26;2.13;;;1.07;;
7340;SDS011;6870;50.944;6.932;2022-08-06T04:50:12;0.97;;;0.80;;
7340;SDS011;6870;50.944;6.932;2022-08-06T04:52:48;1.77;;;0.87;;
7340;SDS011;6870;50.944;6.932;2022-08-06T04:55:19;1.53;;;0.70;;
7340;SDS011;6870;50.944;6.932;2022-08-06T04:57:59;1.70;;;1.10;;
7340;SDS011;6870;50.944;6.932;2022-08-06T05:00:40;1.57;;;0.90;;
7340;SDS011;6870;50.944;6.932;2022-08-06T05:03:30;1.20;;;0.87;;
7340;SDS011;6870;50.944;6.932;2022-08-06T05:06:19;1.60;;;1.03;;
7340;SDS011;6870;50.944;6.932;2022-08-06T05:09:00;1.00;;;0.90;;
7340;SDS011;6870;50.944;6.932;2022-08-06T05:11:52;1.53;;;1.00;;
7340;SDS011;6870;50.944;6.932;2022-08-06T05:14:30;1.60;;;1.07;;
7340;SDS011;6870;50.944;6.932;2022-08-06T05:17:06;1.00;;;0.77;;
7340;SDS011;6870;50.944;6.932;2022-08-06T05:19:38;3.20;;;1.17;;
7340;SDS011;6870;50.944;6.932;2022-08-06T05:22:12;1.33;;;0.77;;
7340;SDS011;6870;50.944;6.932;2022-08-06T05:24:45;2.13;;;1.00;;
7340;SDS011;6870;50.944;6.932;2022-08-06T05:27:30;1.07;;;0.87;;
7340;SDS011;6870;50.944;6.932;2022-08-06T05:30:19;1.20;;;1.00;;
7340;SDS011;6870;50.944;6.932;2022-08-06T05:32:53;1.93;;;0.90;;
7340;SDS011;6870;50.944;6.932;2022-08-06T05:35:23;1.20;;;0.90;;
7340;SDS011;6870;50.944;6.932;2022-08-06T05:38:07;1.23;;;0.90;;
7340;SDS011;6870;50.944;6.932;2022-08-06T05:40:37;1.60;;;0.93;;
7340;SDS011;6870;50.944;6.932;2022-08-06T05:43:20;1.43;;;0.80;;
7340;SDS011;6870;50.944;6.932;2022-08-06T05:45:51;2.70;;;0.90;;
7340;SDS011;6870;50.944;6.932;2022-08-06T05:48:24;1.27;;;0.70;;
7340;SDS011;6870;50.944;6.932;2022-08-06T05:50:59;1.17;;;1.00;;
7340;SDS011;6870;50.944;6.932;2022-08-06T05:53:37;1.37;;;0.87;;
7340;SDS011;6870;50.944;6.932;2022-08-06T05:56:31;1.10;;;0.70;;
7340;SDS011;6870;50.944;6.932;2022-08-06T05:59:17;1.27;;;1.10;;
7340;SDS011;6870;50.944;6.932;2022-08-06T06:02:09;1.30;;;0.90;;
7340;SDS011;6870;50.944;6.932;2022-08-06T06:04:41;0.97;;;0.80;;
7340;SDS011;6870;50.944;6.932;2022-08-06T06:07:33;2.20;;;1.00;;
7340;SDS011;6870;50.944;6.932;2022-08-06T06:10:23;1.40;;;1.17;;
7340;SDS011;6870;50.944;6.932;2022-08-06T06:12:52;1.43;;;0.93;;
7340;SDS011;6870;50.944;6.932;2022-08-06T06:15:24;1.10;;;0.70;;
7340;SDS011;6870;50.944;6.932;2022-08-06T06:18:15;1.37;;;0.80;;
7340;SDS011;6870;50.944;6.932;2022-08-06T06:21:05;1.73;;;0.90;;
7340;SDS011;6870;50.944;6.932;2022-08-06T06:23:58;1.53;;;1.10;;
7340;SDS011;6870;50.944;6.932;2022-08-06T06:26:42;2.80;;;0.80;;
7340;SDS011;6870;50.944;6.932;2022-08-06T06:29:19;1.20;;;0.80;;
7340;SDS011;6870;50.944;6.932;2022-08-06T06:32:25;1.37;;;0.83;;
7340;SDS011;6870;50.944;6.932;2022-08-06T06:35:09;1.90;;;0.83;;
7340;SDS011;6870;50.944;6.932;2022-08-06T06:38:00;1.20;;;0.90;;
7340;SDS011;6870;50.944;6.932;2022-08-06T06:40:52;1.43;;;0.90;;
7340;SDS011;6870;50.944;6.932;2022-08-06T06:43:33;1.40;;;1.20;;
7340;SDS011;6870;50.944;6.932;2022-08-06T06:46:12;1.00;;;0.80;;
7340;SDS011;6870;50.944;6.932;2022-08-06T06:49:09;1.50;;;0.97;;
7340;SDS011;6870;50.944;6.932;2022-08-06T06:52:06;1.33;;;1.10;;
7340;SDS011;6870;50.944;6.932;2022-08-06T06:54:39;1.50;;;0.90;;
7340;SDS011;6870;50.944;6.932;2022-08-06T06:57:31;1.20;;;0.90;;
7340;SDS011;6870;50.944;6.932;2022-08-06T07:00:11;2.23;;;1.07;;
7340;SDS011;6870;50.944;6.932;2022-08-06T07:03:00;1.43;;;1.07;;
7340;SDS011;6870;50.944;6.932;2022-08-06T07:05:37;1.30;;;1.00;;
7340;SDS011;6870;50.944;6.932;2022-08-06T07:08:29;2.50;;;1.00;;
7340;SDS011;6870;50.944;6.932;2022-08-06T07:11:08;2.20;;;1.00;;
7340;SDS011;6870;50.944;6.932;2022-08-06T07:13:46;1.30;;;1.00;;
7340;SDS011;6870;50.944;6.932;2022-08-06T07:16:19;1.70;;;0.97;;
7340;SDS011;6870;50.944;6.932;2022-08-06T07:19:02;1.83;;;1.00;;
7340;SDS011;6870;50.944;6.932;2022-08-06T07:21:37;1.83;;;1.00;;
7340;SDS011;6870;50.944;6.932;2022-08-06T07:24:18;3.70;;;0.80;;
7340;SDS011;6870;50.944;6.932;2022-08-06T07:27:05;1.77;;;0.83;;
7340;SDS011;6870;50.944;6.932;2022-08-06T07:29:40;1.60;;;1.00;;
7340;SDS011;6870;50.944;6.932;2022-08-06T07:32:25;1.37;;;0.80;;
7340;SDS011;6870;50.944;6.932;2022-08-06T07:34:58;1.27;;;1.00;;
7340;SDS011;6870;50.944;6.932;2022-08-06T07:37:41;1.47;;;1.00;;
7340;SDS011;6870;50.944;6.932;2022-08-06T07:40:18;1.80;;;0.97;;
7340;SDS011;6870;50.944;6.932;2022-08-06T07:42:58;1.27;;;0.80;;
7340;SDS011;6870;50.944;6.932;2022-08-06T07:45:50;1.80;;;1.33;;
7340;SDS011;6870;50.944;6.932;2022-08-06T07:48:22;1.53;;;0.90;;
7340;SDS011;6870;50.944;6.932;2022-08-06T07:50:59;1.30;;;1.00;;
7340;SDS011;6870;50.944;6.932;2022-08-06T07:53:31;0.97;;;0.80;;
7340;SDS011;6870;50.944;6.932;2022-08-06T07:56:22;1.20;;;1.10;;
7340;SDS011;6870;50.944;6.932;2022-08-06T07:58:51;1.37;;;0.80;;
7340;SDS011;6870;50.944;6.932;2022-08-06T08:01:23;2.00;;;0.90;;
7340;SDS011;6870;50.944;6.932;2022-08-06T08:04:03;1.07;;;0.87;;
7340;SDS011;6870;50.944;6.932;2022-08-06T08:07:04;1.53;;;0.93;;
7340;SDS011;6870;50.944;6.932;2022-08-06T08:09:55;1.37;;;1.03;;
7340;SDS011;6870;50.944;6.932;2022-08-06T08:12:29;1.10;;;0.80;;
7340;SDS011;6870;50.944;6.932;2022-08-06T08:15:03;1.63;;;1.00;;
7340;SDS011;6870;50.944;6.932;2022-08-06T08:17:47;1.67;;;1.00;;
7340;SDS011;6870;50.944;6.932;2022-08-06T08:20:23;1.43;;;0.90;;
7340;SDS011;6870;50.944;6.932;2022-08-06T08:23:00;0.90;;;0.77;;
7340;SDS011;6870;50.944;6.932;2022-08-06T08:25:31;1.53;;;0.70;;
7340;SDS011;6870;50.944;6.932;2022-08-06T08:28:09;1.10;;;0.80;;
7340;SDS011;6870;50.944;6.932;2022-08-06T08:30:40;1.53;;;1.00;;
7340;SDS011;6870;50.944;6.932;2022-08-06T08:33:15;1.30;;;1.00;;
7340;SDS011;6870;50.944;6.932;2022-08-06T08:35:45;1.23;;;0.73;;
7340;SDS011;6870;50.944;6.932;2022-08-06T08:38:25;1.73;;;0.97;;
7340;SDS011;6870;50.944;6.932;2022-08-06T08:40:56;1.10;;;1.00;;
7340;SDS011;6870;50.944;6.932;2022-08-06T08:43:33;1.53;;;0.90;;
7340;SDS011;6870;50.944;6.932;2022-08-06T08:46:25;0.87;;;0.77;;
7340;SDS011;6870;50.944;6.932;2022-08-06T08:48:57;1.33;;;0.87;;
7340;SDS011;6870;50.944;6.932;2022-08-06T08:51:30;0.93;;;0.80;;
7340;SDS011;6870;50.944;6.932;2022-08-06T08:54:09;1.40;;;0.90;;
7340;SDS011;6870;50.944;6.932;2022-08-06T08:56:44;1.53;;;0.80;;
7340;SDS011;6870;50.944;6.932;2022-08-06T08:59:33;1.63;;;1.03;;
7340;SDS011;6870;50.944;6.932;2022-08-06T09:02:23;1.77;;;1.00;;
7340;SDS011;6870;50.944;6.932;2022-08-06T09:04:53;1.00;;;0.80;;
7340;SDS011;6870;50.944;6.932;2022-08-06T09:07:24;1.03;;;0.60;;
7340;SDS011;6870;50.944;6.932;2022-08-06T09:10:02;1.30;;;0.93;;
7340;SDS011;6870;50.944;6.932;2022-08-06T09:12:38;2.10;;;1.10;;
7340;SDS011;6870;50.944;6.932;2022-08-06T09:15:12;1.00;;;0.63;;
7340;SDS011;6870;50.944;6.932;2022-08-06T09:17:45;1.00;;;0.80;;
7340;SDS011;6870;50.944;6.932;2022-08-06T09:20:34;1.33;;;0.70;;
7340;SDS011;6870;50.944;6.932;2022-08-06T09:23:11;1.67;;;0.90;;
7340;SDS011;6870;50.944;6.932;2022-08-06T09:25:45;1.70;;;0.87;;
7340;SDS011;6870;50.944;6.932;2022-08-06T09:28:30;1.37;;;1.00;;
7340;SDS011;6870;50.944;6.932;2022-08-06T09:31:03;1.40;;;0.87;;
7340;SDS011;6870;50.944;6.932;2022-08-06T09:33:54;1.70;;;1.00;;
7340;SDS011;6870;50.944;6.932;2022-08-06T09:36:45;1.60;;;1.00;;
7340;SDS011;6870;50.944;6.932;2022-08-06T09:39:29;1.40;;;0.80;;
7340;SDS011;6870;50.944;6.932;2022-08-06T09:45:10;1.03;;;0.67;;
7340;SDS011;6870;50.944;6.932;2022-08-06T09:47:43;1.60;;;1.00;;
7340;SDS011;6870;50.944;6.932;2022-08-06T09:53:16;1.97;;;1.10;;
7340;SDS011;6870;50.944;6.932;2022-08-06T09:55:47;1.13;;;0.83;;
7340;SDS011;6870;50.944;6.932;2022-08-06T09:58:26;1.30;;;0.80;;
7340;SDS011;6870;50.944;6.932;2022-08-06T10:01:15;1.40;;;0.77;;
7340;SDS011;6870;50.944;6.932;2022-08-06T10:03:49;1.27;;;0.80;;
7340;SDS011;6870;50.944;6.932;2022-08-06T10:06:35;1.13;;;0.80;;
7340;SDS011;6870;50.944;6.932;2022-08-06T10:09:20;1.77;;;0.90;;
7340;SDS011;6870;50.944;6.932;2022-08-06T10:12:16;1.03;;;0.80;;
7340;SDS011;6870;50.944;6.932;2022-08-06T10:14:50;1.73;;;0.90;;
7340;SDS011;6870;50.944;6.932;2022-08-06T10:17:23;2.43;;;0.90;;
7340;SDS011;6870;50.944;6.932;2022-08-06T10:20:12;1.40;;;0.93;;
7340;SDS011;6870;50.944;6.932;2022-08-06T10:22:49;1.60;;;0.60;;
7340;SDS011;6870;50.944;6.932;2022-08-06T10:25:18;1.47;;;0.80;;
7340;SDS011;6870;50.944;6.932;2022-08-06T10:27:55;2.40;;;0.87;;
7340;SDS011;6870;50.944;6.932;2022-08-06T10:30:26;1.03;;;0.60;;
7340;SDS011;6870;50.944;6.932;2022-08-06T10:33:05;1.10;;;0.60;;
7340;SDS011;6870;50.944;6.932;2022-08-06T10:35:48;1.87;;;0.90;;
7340;SDS011;6870;50.944;6.932;2022-08-06T10:38:20;1.10;;;0.60;;
7340;SDS011;6870;50.944;6.932;2022-08-06T10:41:01;0.80;;;0.70;;
7340;SDS011;6870;50.944;6.932;2022-08-06T10:43:54;1.03;;;0.70;;
7340;SDS011;6870;50.944;6.932;2022-08-06T10:46:23;0.90;;;0.60;;
7340;SDS011;6870;50.944;6.932;2022-08-06T10:48:52;1.20;;;0.80;;
7340;SDS011;6870;50.944;6.932;2022-08-06T10:51:41;2.60;;;0.90;;
7340;SDS011;6870;50.944;6.932;2022-08-06T10:54:24;1.10;;;0.80;;
7340;SDS011;6870;50.944;6.932;2022-08-06T10:56:53;1.10;;;0.80;;
7340;SDS011;6870;50.944;6.932;2022-08-06T10:59:26;0.80;;;0.70;;
7340;SDS011;6870;50.944;6.932;2022-08-06T11:02:09;1.73;;;0.80;;
7340;SDS011;6870;50.944;6.932;2022-08-06T11:04:53;1.23;;;0.70;;
7340;SDS011;6870;50.944;6.932;2022-08-06T11:07:49;1.10;;;0.70;;
7340;SDS011;6870;50.944;6.932;2022-08-06T11:11:10;3.00;;;0.87;;
7340;SDS011;6870;50.944;6.932;2022-08-06T11:14:06;1.20;;;0.60;;
7340;SDS011;6870;50.944;6.932;2022-08-06T11:16:53;1.00;;;0.60;;
7340;SDS011;6870;50.944;6.932;2022-08-06T11:19:39;2.17;;;0.90;;
7340;SDS011;6870;50.944;6.932;2022-08-06T11:22:33;1.57;;;0.70;;
7340;SDS011;6870;50.944;6.932;2022-08-06T11:25:05;1.33;;;0.73;;
7340;SDS011;6870;50.944;6.932;2022-08-06T11:27:52;1.63;;;0.83;;
7340;SDS011;6870;50.944;6.932;2022-08-06T11:30:37;1.13;;;0.83;;
7340;SDS011;6870;50.944;6.932;2022-08-06T11:33:13;1.20;;;0.73;;
7340;SDS011;6870;50.944;6.932;2022-08-06T11:35:45;1.17;;;0.70;;
7340;SDS011;6870;50.944;6.932;2022-08-06T11:41:46;0.90;;;0.60;;
7340;SDS011;6870;50.944;6.932;2022-08-06T11:44:25;0.83;;;0.57;;
7340;SDS011;6870;50.944;6.932;2022-08-06T11:47:06;3.20;;;0.70;;
7340;SDS011;6870;50.944;6.932;2022-08-06T11:49:56;0.90;;;0.50;;
7340;SDS011;6870;50.944;6.932;2022-08-06T11:52:40;1.03;;;0.60;;
7340;SDS011;6870;50.944;6.932;2022-08-06T11:55:14;1.33;;;0.70;;
7340;SDS011;6870;50.944;6.932;2022-08-06T11:57:50;1.47;;;0.87;;
7340;SDS011;6870;50.944;6.932;2022-08-06T12:00:58;1.00;;;0.57;;
7340;SDS011;6870;50.944;6.932;2022-08-06T12:03:48;1.23;;;0.60;;
7340;SDS011;6870;50.944;6.932;2022-08-06T12:06:18;1.30;;;0.73;;
7340;SDS011;6870;50.944;6.932;2022-08-06T12:09:05;1.40;;;0.90;;
7340;SDS011;6870;50.944;6.932;2022-08-06T12:11:44;0.93;;;0.60;;
7340;SDS011;6870;50.944;6.932;2022-08-06T12:17:12;0.70;;;0.50;;
7340;SDS011;6870;50.944;6.932;2022-08-06T12:19:43;1.60;;;1.00;;
7340;SDS011;6870;50.944;6.932;2022-08-06T12:22:27;1.70;;;0.60;;
7340;SDS011;6870;50.944;6.932;2022-08-06T12:24:58;1.80;;;0.63;;
7340;SDS011;6870;50.944;6.932;2022-08-06T12:27:41;0.97;;;0.70;;
7340;SDS011;6870;50.944;6.932;2022-08-06T12:30:20;0.90;;;0.60;;
7340;SDS011;6870;50.944;6.932;2022-08-06T12:33:03;1.63;;;1.07;;
7340;SDS011;6870;50.944;6.932;2022-08-06T12:35:48;1.20;;;0.70;;
7340;SDS011;6870;50.944;6.932;2022-08-06T12:38:18;1.23;;;0.60;;
7340;SDS011;6870;50.944;6.932;2022-08-06T12:40:53;0.80;;;0.47;;
7340;SDS011;6870;50.944;6.932;2022-08-06T12:43:25;1.20;;;0.57;;
7340;SDS011;6870;50.944;6.932;2022-08-06T12:46:12;1.17;;;0.60;;
7340;SDS011;6870;50.944;6.932;2022-08-06T12:48:45;1.87;;;0.70;;
7340;SDS011;6870;50.944;6.932;2022-08-06T12:51:16;1.60;;;0.80;;
7340;SDS011;6870;50.944;6.932;2022-08-06T12:53:54;1.87;;;0.70;;
7340;SDS011;6870;50.944;6.932;2022-08-06T12:56:25;1.40;;;0.80;;
7340;SDS011;6870;50.944;6.932;2022-08-06T12:58:59;1.00;;;0.63;;
7340;SDS011;6870;50.944;6.932;2022-08-06T13:01:32;1.10;;;0.60;;
7340;SDS011;6870;50.944;6.932;2022-08-06T13:04:22;1.07;;;0.63;;
7340;SDS011;6870;50.944;6.932;2022-08-06T13:06:57;1.43;;;0.80;;
7340;SDS011;6870;50.944;6.932;2022-08-06T13:09:34;0.97;;;0.70;;
7340;SDS011;6870;50.944;6.932;2022-08-06T13:12:17;1.10;;;0.70;;
7340;SDS011;6870;50.944;6.932;2022-08-06T13:15:12;1.40;;;0.80;;
7340;SDS011;6870;50.944;6.932;2022-08-06T13:18:01;0.90;;;0.50;;
7340;SDS011;6870;50.944;6.932;2022-08-06T13:20:58;1.20;;;0.63;;
7340;SDS011;6870;50.944;6.932;2022-08-06T13:23:30;1.63;;;0.60;;
7340;SDS011;6870;50.944;6.932;2022-08-06T13:26:10;1.10;;;0.67;;
7340;SDS011;6870;50.944;6.932;2022-08-06T13:29:03;1.40;;;0.67;;
7340;SDS011;6870;50.944;6.932;2022-08-06T13:32:02;1.77;;;0.60;;
7340;SDS011;6870;50.944;6.932;2022-08-06T13:34:53;1.10;;;0.80;;
7340;SDS011;6870;50.944;6.932;2022-08-06T13:43:39;1.60;;;0.63;;
7340;SDS011;6870;50.944;6.932;2022-08-06T13:46:21;0.80;;;0.53;;
7340;SDS011;6870;50.944;6.932;2022-08-06T13:48:56;1.80;;;0.70;;
7340;SDS011;6870;50.944;6.932;2022-08-06T13:51:37;1.00;;;0.57;;
7340;SDS011;6870;50.944;6.932;2022-08-06T13:54:19;1.23;;;0.60;;
7340;SDS011;6870;50.944;6.932;2022-08-06T13:56:48;0.80;;;0.50;;
7340;SDS011;6870;50.944;6.932;2022-08-06T13:59:22;1.00;;;0.70;;
7340;SDS011;6870;50.944;6.932;2022-08-06T14:02:08;1.30;;;0.60;;
7340;SDS011;6870;50.944;6.932;2022-08-06T14:04:39;1.93;;;0.60;;
7340;SDS011;6870;50.944;6.932;2022-08-06T14:07:16;1.30;;;0.60;;
7340;SDS011;6870;50.944;6.932;2022-08-06T14:09:45;1.23;;;0.50;;
7340;SDS011;6870;50.944;6.932;2022-08-06T14:12:34;0.97;;;0.60;;
7340;SDS011;6870;50.944;6.932;2022-08-06T14:15:05;1.00;;;0.50;;
7340;SDS011;6870;50.944;6.932;2022-08-06T14:17:40;0.97;;;0.50;;
7340;SDS011;6870;50.944;6.932;2022-08-06T14:20:12;0.90;;;0.63;;
7340;SDS011;6870;50.944;6.932;2022-08-06T14:22:49;1.13;;;0.70;;
7340;SDS011;6870;50.944;6.932;2022-08-06T14:25:18;0.80;;;0.57;;
7340;SDS011;6870;50.944;6.932;2022-08-06T14:27:46;0.70;;;0.53;;
7340;SDS011;6870;50.944;6.932;2022-08-06T14:30:15;0.90;;;0.57;;
7340;SDS011;6870;50.944;6.932;2022-08-06T14:32:58;1.57;;;0.80;;
7340;SDS011;6870;50.944;6.932;2022-08-06T14:35:45;0.97;;;0.60;;
7340;SDS011;6870;50.944;6.932;2022-08-06T14:38:18;0.77;;;0.53;;
7340;SDS011;6870;50.944;6.932;2022-08-06T14:40:57;0.70;;;0.50;;
7340;SDS011;6870;50.944;6.932;2022-08-06T14:43:43;1.53;;;0.90;;
7340;SDS011;6870;50.944;6.932;2022-08-06T14:46:29;1.03;;;0.70;;
7340;SDS011;6870;50.944;6.932;2022-08-06T14:48:58;0.80;;;0.50;;
7340;SDS011;6870;50.944;6.932;2022-08-06T14:51:39;0.90;;;0.50;;
7340;SDS011;6870;50.944;6.932;2022-08-06T14:54:28;0.80;;;0.60;;
7340;SDS011;6870;50.944;6.932;2022-08-06T14:56:58;1.60;;;0.67;;
7340;SDS011;6870;50.944;6.932;2022-08-06T14:59:42;1.10;;;0.70;;
7340;SDS011;6870;50.944;6.932;2022-08-06T15:02:17;0.90;;;0.50;;
7340;SDS011;6870;50.944;6.932;2022-08-06T15:04:50;0.80;;;0.50;;
7340;SDS011;6870;50.944;6.932;2022-08-06T15:07:20;1.07;;;0.50;;
7340;SDS011;6870;50.944;6.932;2022-08-06T15:09:51;0.70;;;0.50;;
7340;SDS011;6870;50.944;6.932;2022-08-06T15:12:40;1.97;;;0.60;;
7340;SDS011;6870;50.944;6.932;2022-08-06T15:15:16;1.10;;;0.70;;
7340;SDS011;6870;50.944;6.932;2022-08-06T15:17:52;1.10;;;0.60;;
7340;SDS011;6870;50.944;6.932;2022-08-06T15:20:40;0.90;;;0.50;;
7340;SDS011;6870;50.944;6.932;2022-08-06T15:23:10;1.00;;;0.53;;
7340;SDS011;6870;50.944;6.932;2022-08-06T15:25:38;1.07;;;0.60;;
7340;SDS011;6870;50.944;6.932;2022-08-06T15:28:26;0.93;;;0.50;;
7340;SDS011;6870;50.944;6.932;2022-08-06T15:30:55;1.00;;;0.60;;
7340;SDS011;6870;50.944;6.932;2022-08-06T15:33:25;1.63;;;0.70;;
7340;SDS011;6870;50.944;6.932;2022-08-06T15:36:00;0.70;;;0.40;;
7340;SDS011;6870;50.944;6.932;2022-08-06T15:38:30;1.00;;;0.60;;
7340;SDS011;6870;50.944;6.932;2022-08-06T15:41:03;0.80;;;0.40;;
7340;SDS011;6870;50.944;6.932;2022-08-06T15:43:32;0.80;;;0.50;;
7340;SDS011;6870;50.944;6.932;2022-08-06T15:46:10;1.30;;;0.70;;
7340;SDS011;6870;50.944;6.932;2022-08-06T15:48:54;1.20;;;0.70;;
7340;SDS011;6870;50.944;6.932;2022-08-06T15:51:25;1.37;;;0.60;;
7340;SDS011;6870;50.944;6.932;2022-08-06T15:53:58;1.43;;;0.63;;
7340;SDS011;6870;50.944;6.932;2022-08-06T15:56:26;0.90;;;0.63;;
7340;SDS011;6870;50.944;6.932;2022-08-06T15:59:05;1.13;;;0.60;;
7340;SDS011;6870;50.944;6.932;2022-08-06T16:01:38;0.80;;;0.60;;
7340;SDS011;6870;50.944;6.932;2022-08-06T16:04:27;0.97;;;0.63;;
7340;SDS011;6870;50.944;6.932;2022-08-06T16:07:02;1.23;;;0.60;;
7340;SDS011;6870;50.944;6.932;2022-08-06T16:09:33;0.70;;;0.40;;
7340;SDS011;6870;50.944;6.932;2022-08-06T16:12:23;1.10;;;0.50;;
7340;SDS011;6870;50.944;6.932;2022-08-06T16:14:51;1.40;;;0.60;;
7340;SDS011;6870;50.944;6.932;2022-08-06T16:17:24;0.77;;;0.60;;
7340;SDS011;6870;50.944;6.932;2022-08-06T16:20:13;0.60;;;0.40;;
7340;SDS011;6870;50.944;6.932;2022-08-06T16:22:48;1.30;;;0.67;;
7340;SDS011;6870;50.944;6.932;2022-08-06T16:25:19;0.90;;;0.63;;
7340;SDS011;6870;50.944;6.932;2022-08-06T16:28:06;1.10;;;0.60;;
7340;SDS011;6870;50.944;6.932;2022-08-06T16:30:42;1.20;;;0.60;;
7340;SDS011;6870;50.944;6.932;2022-08-06T16:33:30;1.10;;;0.73;;
7340;SDS011;6870;50.944;6.932;2022-08-06T16:36:18;1.43;;;0.63;;
7340;SDS011;6870;50.944;6.932;2022-08-06T16:38:58;1.20;;;0.80;;
7340;SDS011;6870;50.944;6.932;2022-08-06T16:41:28;0.90;;;0.67;;
7340;SDS011;6870;50.944;6.932;2022-08-06T16:44:16;1.10;;;0.50;;
7340;SDS011;6870;50.944;6.932;2022-08-06T16:47:00;1.10;;;0.50;;
7340;SDS011;6870;50.944;6.932;2022-08-06T16:49:31;0.70;;;0.50;;